sensor_id;sensor_type;location;lat;lon;timestamp;temperature;humidity
54540;SHT30;40438;52.992;18.604;2024-03-22T00:01:05;9.13;91.08
54540;SHT30;40438;52.992;18.604;2024-03-22T00:03:31;9.06;90.69
54540;SHT30;40438;52.992;18.604;2024-03-22T00:05:56;9.06;90.54
54540;SHT30;40438;52.992;18.604;2024-03-22T00:08:22;9.04;90.43
54540;SHT30;40438;52.992;18.604;2024-03-22T00:10:48;9.04;90.44
54540;SHT30;40438;52.992;18.604;2024-03-22T00:13:14;9.04;90.45
54540;SHT30;40438;52.992;18.604;2024-03-22T00:15:39;9.01;90.49
54540;SHT30;40438;52.992;18.604;2024-03-22T00:18:06;8.99;90.28
54540;SHT30;40438;52.992;18.604;2024-03-22T00:20:32;8.96;90.34
54540;SHT30;40438;52.992;18.604;2024-03-22T00:22:58;8.94;90.43
54540;SHT30;40438;52.992;18.604;2024-03-22T00:25:24;8.96;90.39
54540;SHT30;40438;52.992;18.604;2024-03-22T00:27:49;8.89;90.37
54540;SHT30;40438;52.992;18.604;2024-03-22T00:30:15;8.89;90.36
54540;SHT30;40438;52.992;18.604;2024-03-22T00:32:41;8.89;90.42
54540;SHT30;40438;52.992;18.604;2024-03-22T00:35:08;8.89;90.51
54540;SHT30;40438;52.992;18.604;2024-03-22T00:37:34;8.87;90.57
54540;SHT30;40438;52.992;18.604;2024-03-22T00:40:00;8.85;90.70
54540;SHT30;40438;52.992;18.604;2024-03-22T00:42:25;8.83;90.87
54540;SHT30;40438;52.992;18.604;2024-03-22T00:44:51;8.85;90.79
54540;SHT30;40438;52.992;18.604;2024-03-22T00:47:17;8.85;90.87
54540;SHT30;40438;52.992;18.604;2024-03-22T00:49:43;8.83;90.90
54540;SHT30;40438;52.992;18.604;2024-03-22T00:52:10;8.80;90.85
54540;SHT30;40438;52.992;18.604;2024-03-22T00:54:36;8.83;90.85
54540;SHT30;40438;52.992;18.604;2024-03-22T00:57:02;8.81;90.84
54540;SHT30;40438;52.992;18.604;2024-03-22T00:59:28;8.79;91.06
54540;SHT30;40438;52.992;18.604;2024-03-22T01:01:53;8.79;91.15
54540;SHT30;40438;52.992;18.604;2024-03-22T01:04:19;8.77;91.23
54540;SHT30;40438;52.992;18.604;2024-03-22T01:06:45;8.73;91.41
54540;SHT30;40438;52.992;18.604;2024-03-22T01:09:12;8.73;91.51
54540;SHT30;40438;52.992;18.604;2024-03-22T01:11:38;8.70;91.65
54540;SHT30;40438;52.992;18.604;2024-03-22T01:14:03;8.72;91.56
54540;SHT30;40438;52.992;18.604;2024-03-22T01:16:29;8.70;91.56
54540;SHT30;40438;52.992;18.604;2024-03-22T01:18:55;8.69;91.61
54540;SHT30;40438;52.992;18.604;2024-03-22T01:21:21;8.63;91.61
54540;SHT30;40438;52.992;18.604;2024-03-22T01:23:46;8.63;91.60
54540;SHT30;40438;52.992;18.604;2024-03-22T01:26:13;8.63;91.59
54540;SHT30;40438;52.992;18.604;2024-03-22T01:28:39;8.63;91.66
54540;SHT30;40438;52.992;18.604;2024-03-22T01:31:05;8.62;91.67
54540;SHT30;40438;52.992;18.604;2024-03-22T01:33:31;8.62;91.75
54540;SHT30;40438;52.992;18.604;2024-03-22T01:35:56;8.65;91.75
54540;SHT30;40438;52.992;18.604;2024-03-22T01:38:22;8.59;91.77
54540;SHT30;40438;52.992;18.604;2024-03-22T01:40:48;8.59;91.78
54540;SHT30;40438;52.992;18.604;2024-03-22T01:43:15;8.59;91.77
54540;SHT30;40438;52.992;18.604;2024-03-22T01:45:41;8.55;91.87
54540;SHT30;40438;52.992;18.604;2024-03-22T01:48:07;8.55;91.96
54540;SHT30;40438;52.992;18.604;2024-03-22T01:50:33;8.52;91.99
54540;SHT30;40438;52.992;18.604;2024-03-22T01:52:59;8.49;91.85
54540;SHT30;40438;52.992;18.604;2024-03-22T01:55:26;8.46;91.83
54540;SHT30;40438;52.992;18.604;2024-03-22T01:57:53;8.44;92.01
54540;SHT30;40438;52.992;18.604;2024-03-22T02:00:22;8.41;92.01
54540;SHT30;40438;52.992;18.604;2024-03-22T02:02:47;8.41;92.05
54540;SHT30;40438;52.992;18.604;2024-03-22T02:05:14;8.38;92.11
54540;SHT30;40438;52.992;18.604;2024-03-22T02:07:39;8.42;92.03
54540;SHT30;40438;52.992;18.604;2024-03-22T02:10:06;8.39;92.26
54540;SHT30;40438;52.992;18.604;2024-03-22T02:12:32;8.39;92.17
54540;SHT30;40438;52.992;18.604;2024-03-22T02:14:58;8.38;92.04
54540;SHT30;40438;52.992;18.604;2024-03-22T02:17:25;8.36;91.95
54540;SHT30;40438;52.992;18.604;2024-03-22T02:19:51;8.36;91.94
54540;SHT30;40438;52.992;18.604;2024-03-22T02:22:16;8.38;91.88
54540;SHT30;40438;52.992;18.604;2024-03-22T02:24:43;8.36;91.82
54540;SHT30;40438;52.992;18.604;2024-03-22T02:27:09;8.35;91.78
54540;SHT30;40438;52.992;18.604;2024-03-22T02:29:35;8.34;91.77
54540;SHT30;40438;52.992;18.604;2024-03-22T02:32:01;8.36;91.77
54540;SHT30;40438;52.992;18.604;2024-03-22T02:34:26;8.38;91.74
54540;SHT30;40438;52.992;18.604;2024-03-22T02:36:52;8.35;91.73
54540;SHT30;40438;52.992;18.604;2024-03-22T02:39:18;8.35;91.64
54540;SHT30;40438;52.992;18.604;2024-03-22T02:41:45;8.35;91.59
54540;SHT30;40438;52.992;18.604;2024-03-22T02:44:11;8.31;91.52
54540;SHT30;40438;52.992;18.604;2024-03-22T02:46:36;8.34;91.50
54540;SHT30;40438;52.992;18.604;2024-03-22T02:49:02;8.32;91.47
54540;SHT30;40438;52.992;18.604;2024-03-22T02:51:28;8.32;91.52
54540;SHT30;40438;52.992;18.604;2024-03-22T02:53:54;8.31;91.44
54540;SHT30;40438;52.992;18.604;2024-03-22T02:56:20;8.29;91.31
54540;SHT30;40438;52.992;18.604;2024-03-22T02:58:48;8.27;91.11
54540;SHT30;40438;52.992;18.604;2024-03-22T03:01:14;8.25;91.09
54540;SHT30;40438;52.992;18.604;2024-03-22T03:03:40;8.24;90.99
54540;SHT30;40438;52.992;18.604;2024-03-22T03:06:06;8.22;90.88
54540;SHT30;40438;52.992;18.604;2024-03-22T03:08:32;8.17;90.75
54540;SHT30;40438;52.992;18.604;2024-03-22T03:10:57;8.15;90.64
54540;SHT30;40438;52.992;18.604;2024-03-22T03:13:23;8.15;90.63
54540;SHT30;40438;52.992;18.604;2024-03-22T03:15:50;8.08;90.57
54540;SHT30;40438;52.992;18.604;2024-03-22T03:18:16;8.11;90.64
54540;SHT30;40438;52.992;18.604;2024-03-22T03:20:42;8.08;90.75
54540;SHT30;40438;52.992;18.604;2024-03-22T03:23:08;8.08;90.81
54540;SHT30;40438;52.992;18.604;2024-03-22T03:25:33;8.08;90.80
54540;SHT30;40438;52.992;18.604;2024-03-22T03:27:59;8.08;90.83
54540;SHT30;40438;52.992;18.604;2024-03-22T03:30:25;8.06;90.86
54540;SHT30;40438;52.992;18.604;2024-03-22T03:32:52;8.08;90.86
54540;SHT30;40438;52.992;18.604;2024-03-22T03:35:18;8.04;90.90
54540;SHT30;40438;52.992;18.604;2024-03-22T03:37:43;8.07;90.86
54540;SHT30;40438;52.992;18.604;2024-03-22T03:40:10;8.11;90.85
54540;SHT30;40438;52.992;18.604;2024-03-22T03:42:35;8.10;90.78
54540;SHT30;40438;52.992;18.604;2024-03-22T03:45:01;8.06;90.77
54540;SHT30;40438;52.992;18.604;2024-03-22T03:47:27;8.06;90.76
54540;SHT30;40438;52.992;18.604;2024-03-22T03:49:54;8.04;90.74
54540;SHT30;40438;52.992;18.604;2024-03-22T03:52:20;7.98;90.77
54540;SHT30;40438;52.992;18.604;2024-03-22T03:54:46;8.03;90.74
54540;SHT30;40438;52.992;18.604;2024-03-22T03:57:11;8.00;90.77
54540;SHT30;40438;52.992;18.604;2024-03-22T03:59:37;8.00;90.67
54540;SHT30;40438;52.992;18.604;2024-03-22T04:02:03;7.98;90.59
54540;SHT30;40438;52.992;18.604;2024-03-22T04:04:29;8.00;90.60
54540;SHT30;40438;52.992;18.604;2024-03-22T04:06:56;7.98;90.54
54540;SHT30;40438;52.992;18.604;2024-03-22T04:09:22;7.97;90.56
54540;SHT30;40438;52.992;18.604;2024-03-22T04:11:47;7.94;90.53
54540;SHT30;40438;52.992;18.604;2024-03-22T04:14:13;7.91;90.55
54540;SHT30;40438;52.992;18.604;2024-03-22T04:16:39;7.94;90.54
54540;SHT30;40438;52.992;18.604;2024-03-22T04:19:05;7.93;90.54
54540;SHT30;40438;52.992;18.604;2024-03-22T04:21:30;7.89;90.49
54540;SHT30;40438;52.992;18.604;2024-03-22T04:23:57;7.93;90.47
54540;SHT30;40438;52.992;18.604;2024-03-22T04:26:23;7.90;90.42
54540;SHT30;40438;52.992;18.604;2024-03-22T04:28:49;7.89;90.43
54540;SHT30;40438;52.992;18.604;2024-03-22T04:31:15;7.91;90.45
54540;SHT30;40438;52.992;18.604;2024-03-22T04:33:41;7.89;90.36
54540;SHT30;40438;52.992;18.604;2024-03-22T04:36:07;7.90;90.36
54540;SHT30;40438;52.992;18.604;2024-03-22T04:38:32;7.87;90.39
54540;SHT30;40438;52.992;18.604;2024-03-22T04:41:00;7.89;90.41
54540;SHT30;40438;52.992;18.604;2024-03-22T04:43:25;7.89;90.36
54540;SHT30;40438;52.992;18.604;2024-03-22T04:45:51;7.86;90.36
54540;SHT30;40438;52.992;18.604;2024-03-22T04:48:18;7.89;90.36
54540;SHT30;40438;52.992;18.604;2024-03-22T04:50:44;7.87;90.34
54540;SHT30;40438;52.992;18.604;2024-03-22T04:53:10;7.86;90.39
54540;SHT30;40438;52.992;18.604;2024-03-22T04:55:36;7.86;90.35
54540;SHT30;40438;52.992;18.604;2024-03-22T04:58:03;7.87;90.49
54540;SHT30;40438;52.992;18.604;2024-03-22T05:00:29;7.86;90.50
54540;SHT30;40438;52.992;18.604;2024-03-22T05:02:55;7.85;90.48
54540;SHT30;40438;52.992;18.604;2024-03-22T05:05:21;7.85;90.46
54540;SHT30;40438;52.992;18.604;2024-03-22T05:07:47;7.85;90.53
54540;SHT30;40438;52.992;18.604;2024-03-22T05:10:12;7.86;90.55
54540;SHT30;40438;52.992;18.604;2024-03-22T05:12:38;7.87;90.55
54540;SHT30;40438;52.992;18.604;2024-03-22T05:15:07;7.87;90.55
54540;SHT30;40438;52.992;18.604;2024-03-22T05:17:33;7.90;90.53
54540;SHT30;40438;52.992;18.604;2024-03-22T05:19:58;7.87;90.48
54540;SHT30;40438;52.992;18.604;2024-03-22T05:22:24;7.90;90.50
54540;SHT30;40438;52.992;18.604;2024-03-22T05:24:50;7.90;90.48
54540;SHT30;40438;52.992;18.604;2024-03-22T05:27:16;7.87;90.31
54540;SHT30;40438;52.992;18.604;2024-03-22T05:29:42;7.90;90.30
54540;SHT30;40438;52.992;18.604;2024-03-22T05:32:09;7.86;90.38
54540;SHT30;40438;52.992;18.604;2024-03-22T05:34:35;7.77;90.54
54540;SHT30;40438;52.992;18.604;2024-03-22T05:37:01;7.79;90.51
54540;SHT30;40438;52.992;18.604;2024-03-22T05:39:26;7.79;90.66
54540;SHT30;40438;52.992;18.604;2024-03-22T05:41:52;7.80;90.65
54540;SHT30;40438;52.992;18.604;2024-03-22T05:44:18;7.79;90.76
54540;SHT30;40438;52.992;18.604;2024-03-22T05:46:44;7.83;90.76
54540;SHT30;40438;52.992;18.604;2024-03-22T05:49:11;7.76;91.03
54540;SHT30;40438;52.992;18.604;2024-03-22T05:51:37;7.75;90.96
54540;SHT30;40438;52.992;18.604;2024-03-22T05:54:02;7.69;90.80
54540;SHT30;40438;52.992;18.604;2024-03-22T05:56:28;7.65;90.83
54540;SHT30;40438;52.992;18.604;2024-03-22T05:58:54;7.60;90.77
54540;SHT30;40438;52.992;18.604;2024-03-22T06:01:20;7.56;90.70
54540;SHT30;40438;52.992;18.604;2024-03-22T06:03:45;7.59;90.58
54540;SHT30;40438;52.992;18.604;2024-03-22T06:06:12;7.49;90.54
54540;SHT30;40438;52.992;18.604;2024-03-22T06:08:38;7.55;90.65
54540;SHT30;40438;52.992;18.604;2024-03-22T06:11:04;7.60;90.42
54540;SHT30;40438;52.992;18.604;2024-03-22T06:13:30;7.59;90.14
54540;SHT30;40438;52.992;18.604;2024-03-22T06:15:55;7.65;89.91
54540;SHT30;40438;52.992;18.604;2024-03-22T06:18:21;7.60;89.59
54540;SHT30;40438;52.992;18.604;2024-03-22T06:20:47;7.62;89.58
54540;SHT30;40438;52.992;18.604;2024-03-22T06:23:14;7.66;89.24
54540;SHT30;40438;52.992;18.604;2024-03-22T06:25:40;7.69;89.07
54540;SHT30;40438;52.992;18.604;2024-03-22T06:28:06;7.75;88.69
54540;SHT30;40438;52.992;18.604;2024-03-22T06:30:31;7.70;88.23
54540;SHT30;40438;52.992;18.604;2024-03-22T06:32:57;7.65;88.26
54540;SHT30;40438;52.992;18.604;2024-03-22T06:35:23;7.67;88.19
54540;SHT30;40438;52.992;18.604;2024-03-22T06:37:49;7.67;88.07
54540;SHT30;40438;52.992;18.604;2024-03-22T06:40:16;7.71;88.18
54540;SHT30;40438;52.992;18.604;2024-03-22T06:42:42;7.73;87.85
54540;SHT30;40438;52.992;18.604;2024-03-22T06:45:08;7.79;87.72
54540;SHT30;40438;52.992;18.604;2024-03-22T06:47:34;7.79;87.63
54540;SHT30;40438;52.992;18.604;2024-03-22T06:50:00;7.83;87.40
54540;SHT30;40438;52.992;18.604;2024-03-22T06:52:26;7.80;87.40
54540;SHT30;40438;52.992;18.604;2024-03-22T06:54:51;7.79;87.84
54540;SHT30;40438;52.992;18.604;2024-03-22T06:57:19;7.85;87.99
54540;SHT30;40438;52.992;18.604;2024-03-22T06:59:44;7.85;88.03
54540;SHT30;40438;52.992;18.604;2024-03-22T07:02:10;7.83;87.73
54540;SHT30;40438;52.992;18.604;2024-03-22T07:04:36;7.90;87.75
54540;SHT30;40438;52.992;18.604;2024-03-22T07:07:02;7.89;87.55
54540;SHT30;40438;52.992;18.604;2024-03-22T07:09:27;7.89;87.56
54540;SHT30;40438;52.992;18.604;2024-03-22T07:11:53;7.87;87.30
54540;SHT30;40438;52.992;18.604;2024-03-22T07:14:20;7.87;87.44
54540;SHT30;40438;52.992;18.604;2024-03-22T07:16:46;7.83;87.08
54540;SHT30;40438;52.992;18.604;2024-03-22T07:19:12;7.82;86.38
54540;SHT30;40438;52.992;18.604;2024-03-22T07:21:37;7.76;86.61
54540;SHT30;40438;52.992;18.604;2024-03-22T07:24:04;7.76;86.37
54540;SHT30;40438;52.992;18.604;2024-03-22T07:26:29;7.76;86.23
54540;SHT30;40438;52.992;18.604;2024-03-22T07:28:55;7.70;86.08
54540;SHT30;40438;52.992;18.604;2024-03-22T07:31:22;7.66;86.42
54540;SHT30;40438;52.992;18.604;2024-03-22T07:33:48;7.57;86.17
54540;SHT30;40438;52.992;18.604;2024-03-22T07:36:15;7.59;86.29
54540;SHT30;40438;52.992;18.604;2024-03-22T07:38:41;7.50;86.63
54540;SHT30;40438;52.992;18.604;2024-03-22T07:41:07;7.55;86.68
54540;SHT30;40438;52.992;18.604;2024-03-22T07:43:33;7.59;87.00
54540;SHT30;40438;52.992;18.604;2024-03-22T07:45:58;7.62;87.17
54540;SHT30;40438;52.992;18.604;2024-03-22T07:48:25;7.60;86.91
54540;SHT30;40438;52.992;18.604;2024-03-22T07:50:56;7.56;87.10
54540;SHT30;40438;52.992;18.604;2024-03-22T07:53:21;7.60;87.01
54540;SHT30;40438;52.992;18.604;2024-03-22T07:55:47;7.56;87.13
54540;SHT30;40438;52.992;18.604;2024-03-22T07:58:13;7.52;87.30
54540;SHT30;40438;52.992;18.604;2024-03-22T08:00:39;7.53;87.31
54540;SHT30;40438;52.992;18.604;2024-03-22T08:03:05;7.55;87.21
54540;SHT30;40438;52.992;18.604;2024-03-22T08:05:32;7.59;87.28
54540;SHT30;40438;52.992;18.604;2024-03-22T08:07:59;7.60;87.30
54540;SHT30;40438;52.992;18.604;2024-03-22T08:10:25;7.62;87.59
54540;SHT30;40438;52.992;18.604;2024-03-22T08:12:50;7.57;87.48
54540;SHT30;40438;52.992;18.604;2024-03-22T08:15:16;7.53;87.73
54540;SHT30;40438;52.992;18.604;2024-03-22T08:17:42;7.52;87.97
54540;SHT30;40438;52.992;18.604;2024-03-22T08:20:08;7.56;87.85
54540;SHT30;40438;52.992;18.604;2024-03-22T08:22:35;7.55;88.14
54540;SHT30;40438;52.992;18.604;2024-03-22T08:25:01;7.56;88.40
54540;SHT30;40438;52.992;18.604;2024-03-22T08:27:27;7.59;87.67
54540;SHT30;40438;52.992;18.604;2024-03-22T08:29:53;7.59;87.80
54540;SHT30;40438;52.992;18.604;2024-03-22T08:32:19;7.66;87.87
54540;SHT30;40438;52.992;18.604;2024-03-22T08:34:45;7.65;87.87
54540;SHT30;40438;52.992;18.604;2024-03-22T08:37:11;7.69;88.28
54540;SHT30;40438;52.992;18.604;2024-03-22T08:39:38;7.75;88.34
54540;SHT30;40438;52.992;18.604;2024-03-22T08:42:04;7.76;88.34
54540;SHT30;40438;52.992;18.604;2024-03-22T08:44:30;7.79;88.04
54540;SHT30;40438;52.992;18.604;2024-03-22T08:46:56;7.76;87.62
54540;SHT30;40438;52.992;18.604;2024-03-22T08:49:21;7.75;87.68
54540;SHT30;40438;52.992;18.604;2024-03-22T08:51:47;7.77;88.15
54540;SHT30;40438;52.992;18.604;2024-03-22T08:54:13;7.87;88.20
54540;SHT30;40438;52.992;18.604;2024-03-22T08:56:40;8.01;87.74
54540;SHT30;40438;52.992;18.604;2024-03-22T08:59:06;7.98;86.84
54540;SHT30;40438;52.992;18.604;2024-03-22T09:01:32;8.06;86.70
54540;SHT30;40438;52.992;18.604;2024-03-22T09:03:57;8.06;86.73
54540;SHT30;40438;52.992;18.604;2024-03-22T09:06:23;8.08;87.06
54540;SHT30;40438;52.992;18.604;2024-03-22T09:08:49;8.08;87.35
54540;SHT30;40438;52.992;18.604;2024-03-22T09:11:15;8.13;87.11
54540;SHT30;40438;52.992;18.604;2024-03-22T09:13:42;8.17;86.98
54540;SHT30;40438;52.992;18.604;2024-03-22T09:16:08;8.15;87.29
54540;SHT30;40438;52.992;18.604;2024-03-22T09:18:33;8.21;87.89
54540;SHT30;40438;52.992;18.604;2024-03-22T09:20:59;8.22;86.82
54540;SHT30;40438;52.992;18.604;2024-03-22T09:23:25;8.22;86.83
54540;SHT30;40438;52.992;18.604;2024-03-22T09:25:51;8.21;86.84
54540;SHT30;40438;52.992;18.604;2024-03-22T09:28:16;8.35;86.69
54540;SHT30;40438;52.992;18.604;2024-03-22T09:30:43;8.42;86.34
54540;SHT30;40438;52.992;18.604;2024-03-22T09:33:09;8.50;85.85
54540;SHT30;40438;52.992;18.604;2024-03-22T09:35:35;8.60;85.83
54540;SHT30;40438;52.992;18.604;2024-03-22T09:38:01;8.85;86.09
54540;SHT30;40438;52.992;18.604;2024-03-22T09:40:27;9.04;86.08
54540;SHT30;40438;52.992;18.604;2024-03-22T09:42:53;9.11;84.38
54540;SHT30;40438;52.992;18.604;2024-03-22T09:45:19;9.17;83.62
54540;SHT30;40438;52.992;18.604;2024-03-22T09:47:48;9.08;83.57
54540;SHT30;40438;52.992;18.604;2024-03-22T09:50:14;9.06;83.54
54540;SHT30;40438;52.992;18.604;2024-03-22T09:52:41;9.07;83.78
54540;SHT30;40438;52.992;18.604;2024-03-22T09:55:08;8.99;83.71
54540;SHT30;40438;52.992;18.604;2024-03-22T09:57:35;8.97;83.77
54540;SHT30;40438;52.992;18.604;2024-03-22T10:00:03;8.99;83.54
54540;SHT30;40438;52.992;18.604;2024-03-22T10:02:38;9.04;84.41
54540;SHT30;40438;52.992;18.604;2024-03-22T10:05:06;9.13;83.36
54540;SHT30;40438;52.992;18.604;2024-03-22T10:07:32;9.11;82.84
54540;SHT30;40438;52.992;18.604;2024-03-22T10:09:58;9.13;82.83
54540;SHT30;40438;52.992;18.604;2024-03-22T10:12:24;9.17;83.13
54540;SHT30;40438;52.992;18.604;2024-03-22T10:14:50;9.20;82.83
54540;SHT30;40438;52.992;18.604;2024-03-22T10:17:16;9.21;82.73
54540;SHT30;40438;52.992;18.604;2024-03-22T10:19:42;9.17;83.00
54540;SHT30;40438;52.992;18.604;2024-03-22T10:22:09;9.20;83.39
54540;SHT30;40438;52.992;18.604;2024-03-22T10:24:35;9.20;83.77
54540;SHT30;40438;52.992;18.604;2024-03-22T10:27:00;9.18;83.52
54540;SHT30;40438;52.992;18.604;2024-03-22T10:29:26;9.21;83.03
54540;SHT30;40438;52.992;18.604;2024-03-22T10:31:53;9.24;83.06
54540;SHT30;40438;52.992;18.604;2024-03-22T10:34:20;9.27;82.97
54540;SHT30;40438;52.992;18.604;2024-03-22T10:36:48;9.30;83.43
54540;SHT30;40438;52.992;18.604;2024-03-22T10:39:17;9.41;82.84
54540;SHT30;40438;52.992;18.604;2024-03-22T10:41:43;9.45;82.64
54540;SHT30;40438;52.992;18.604;2024-03-22T10:44:10;9.49;81.49
54540;SHT30;40438;52.992;18.604;2024-03-22T10:46:35;9.59;81.46
54540;SHT30;40438;52.992;18.604;2024-03-22T10:49:02;9.63;80.68
54540;SHT30;40438;52.992;18.604;2024-03-22T10:51:28;9.65;80.12
54540;SHT30;40438;52.992;18.604;2024-03-22T10:53:55;9.66;79.98
54540;SHT30;40438;52.992;18.604;2024-03-22T10:56:24;9.69;79.03
54540;SHT30;40438;52.992;18.604;2024-03-22T10:58:50;9.65;79.24
54540;SHT30;40438;52.992;18.604;2024-03-22T11:01:22;9.65;78.97
54540;SHT30;40438;52.992;18.604;2024-03-22T11:03:48;9.56;78.56
54540;SHT30;40438;52.992;18.604;2024-03-22T11:06:18;9.59;79.43
54540;SHT30;40438;52.992;18.604;2024-03-22T11:08:44;9.63;79.23
54540;SHT30;40438;52.992;18.604;2024-03-22T11:11:10;9.65;79.31
54540;SHT30;40438;52.992;18.604;2024-03-22T11:13:39;9.70;79.40
54540;SHT30;40438;52.992;18.604;2024-03-22T11:16:05;9.73;79.36
54540;SHT30;40438;52.992;18.604;2024-03-22T11:18:31;9.76;79.10
54540;SHT30;40438;52.992;18.604;2024-03-22T11:20:57;9.82;78.76
54540;SHT30;40438;52.992;18.604;2024-03-22T11:23:24;9.81;78.35
54540;SHT30;40438;52.992;18.604;2024-03-22T11:25:50;9.73;78.70
54540;SHT30;40438;52.992;18.604;2024-03-22T11:28:17;9.73;78.76
54540;SHT30;40438;52.992;18.604;2024-03-22T11:30:44;9.67;78.02
54540;SHT30;40438;52.992;18.604;2024-03-22T11:33:10;9.73;78.42
54540;SHT30;40438;52.992;18.604;2024-03-22T11:35:36;9.69;79.06
54540;SHT30;40438;52.992;18.604;2024-03-22T11:38:01;9.69;79.64
54540;SHT30;40438;52.992;18.604;2024-03-22T11:40:28;9.70;79.37
54540;SHT30;40438;52.992;18.604;2024-03-22T11:42:55;9.69;79.31
54540;SHT30;40438;52.992;18.604;2024-03-22T11:45:23;9.66;79.21
54540;SHT30;40438;52.992;18.604;2024-03-22T11:47:50;9.67;79.46
54540;SHT30;40438;52.992;18.604;2024-03-22T11:50:16;9.69;78.99
54540;SHT30;40438;52.992;18.604;2024-03-22T11:52:42;9.73;78.74
54540;SHT30;40438;52.992;18.604;2024-03-22T11:55:10;9.75;78.64
54540;SHT30;40438;52.992;18.604;2024-03-22T11:57:36;9.78;78.62
54540;SHT30;40438;52.992;18.604;2024-03-22T12:00:03;9.81;78.49
54540;SHT30;40438;52.992;18.604;2024-03-22T12:02:38;9.86;78.73
54540;SHT30;40438;52.992;18.604;2024-03-22T12:05:06;9.90;78.56
54540;SHT30;40438;52.992;18.604;2024-03-22T12:07:32;9.82;79.09
54540;SHT30;40438;52.992;18.604;2024-03-22T12:09:57;9.83;79.34
54540;SHT30;40438;52.992;18.604;2024-03-22T12:12:23;9.82;79.78
54540;SHT30;40438;52.992;18.604;2024-03-22T12:14:49;9.83;79.85
54540;SHT30;40438;52.992;18.604;2024-03-22T12:17:15;9.83;79.99
54540;SHT30;40438;52.992;18.604;2024-03-22T12:19:41;9.85;80.38
54540;SHT30;40438;52.992;18.604;2024-03-22T12:22:08;9.85;80.53
54540;SHT30;40438;52.992;18.604;2024-03-22T12:24:34;9.86;80.09
54540;SHT30;40438;52.992;18.604;2024-03-22T12:27:00;9.85;81.01
54540;SHT30;40438;52.992;18.604;2024-03-22T12:29:25;9.81;81.44
54540;SHT30;40438;52.992;18.604;2024-03-22T12:31:51;9.75;82.05
54540;SHT30;40438;52.992;18.604;2024-03-22T12:34:17;9.70;82.31
54540;SHT30;40438;52.992;18.604;2024-03-22T12:36:43;9.76;82.89
54540;SHT30;40438;52.992;18.604;2024-03-22T12:39:11;9.78;83.18
54540;SHT30;40438;52.992;18.604;2024-03-22T12:41:37;9.72;82.69
54540;SHT30;40438;52.992;18.604;2024-03-22T12:44:03;9.81;83.16
54540;SHT30;40438;52.992;18.604;2024-03-22T12:46:29;9.78;83.03
54540;SHT30;40438;52.992;18.604;2024-03-22T12:48:55;9.82;82.94
54540;SHT30;40438;52.992;18.604;2024-03-22T12:51:21;9.83;82.72
54540;SHT30;40438;52.992;18.604;2024-03-22T12:53:47;9.83;82.48
54540;SHT30;40438;52.992;18.604;2024-03-22T12:56:14;9.79;81.58
54540;SHT30;40438;52.992;18.604;2024-03-22T12:58:40;9.86;82.48
54540;SHT30;40438;52.992;18.604;2024-03-22T13:01:05;9.87;82.45
54540;SHT30;40438;52.992;18.604;2024-03-22T13:03:32;9.92;82.21
54540;SHT30;40438;52.992;18.604;2024-03-22T13:05:58;9.96;82.38
54540;SHT30;40438;52.992;18.604;2024-03-22T13:08:23;9.96;82.16
54540;SHT30;40438;52.992;18.604;2024-03-22T13:10:49;10.00;81.71
54540;SHT30;40438;52.992;18.604;2024-03-22T13:13:17;9.97;81.31
54540;SHT30;40438;52.992;18.604;2024-03-22T13:15:42;10.00;81.91
54540;SHT30;40438;52.992;18.604;2024-03-22T13:18:09;9.97;81.65
54540;SHT30;40438;52.992;18.604;2024-03-22T13:20:35;10.02;81.62
54540;SHT30;40438;52.992;18.604;2024-03-22T13:23:01;10.06;81.91
54540;SHT30;40438;52.992;18.604;2024-03-22T13:25:27;10.06;81.80
54540;SHT30;40438;52.992;18.604;2024-03-22T13:27:52;10.09;82.09
54540;SHT30;40438;52.992;18.604;2024-03-22T13:30:20;10.10;81.73
54540;SHT30;40438;52.992;18.604;2024-03-22T13:32:45;10.17;81.05
54540;SHT30;40438;52.992;18.604;2024-03-22T13:35:11;10.17;81.20
54540;SHT30;40438;52.992;18.604;2024-03-22T13:37:37;10.23;81.51
54540;SHT30;40438;52.992;18.604;2024-03-22T13:40:03;10.20;80.75
54540;SHT30;40438;52.992;18.604;2024-03-22T13:42:29;10.26;80.81
54540;SHT30;40438;52.992;18.604;2024-03-22T13:44:55;10.27;81.21
54540;SHT30;40438;52.992;18.604;2024-03-22T13:47:22;10.30;80.86
54540;SHT30;40438;52.992;18.604;2024-03-22T13:49:48;10.35;80.88
54540;SHT30;40438;52.992;18.604;2024-03-22T13:52:14;10.38;80.75
54540;SHT30;40438;52.992;18.604;2024-03-22T13:54:40;10.45;80.44
54540;SHT30;40438;52.992;18.604;2024-03-22T13:57:06;10.44;80.01
54540;SHT30;40438;52.992;18.604;2024-03-22T13:59:31;10.47;80.25
54540;SHT30;40438;52.992;18.604;2024-03-22T14:01:57;10.48;80.50
54540;SHT30;40438;52.992;18.604;2024-03-22T14:04:24;10.47;80.29
54540;SHT30;40438;52.992;18.604;2024-03-22T14:06:50;10.49;80.87
54540;SHT30;40438;52.992;18.604;2024-03-22T14:09:16;10.61;79.74
54540;SHT30;40438;52.992;18.604;2024-03-22T14:11:42;10.62;79.67
54540;SHT30;40438;52.992;18.604;2024-03-22T14:14:07;10.62;79.92
54540;SHT30;40438;52.992;18.604;2024-03-22T14:16:33;10.69;79.60
54540;SHT30;40438;52.992;18.604;2024-03-22T14:18:59;10.65;79.53
54540;SHT30;40438;52.992;18.604;2024-03-22T14:21:26;10.71;79.20
54540;SHT30;40438;52.992;18.604;2024-03-22T14:23:52;10.74;79.33
54540;SHT30;40438;52.992;18.604;2024-03-22T14:26:18;10.76;78.97
54540;SHT30;40438;52.992;18.604;2024-03-22T14:28:44;10.75;78.90
54540;SHT30;40438;52.992;18.604;2024-03-22T14:31:10;10.76;78.90
54540;SHT30;40438;52.992;18.604;2024-03-22T14:33:37;10.78;78.23
54540;SHT30;40438;52.992;18.604;2024-03-22T14:36:03;10.82;78.83
54540;SHT30;40438;52.992;18.604;2024-03-22T14:38:31;10.84;78.36
54540;SHT30;40438;52.992;18.604;2024-03-22T14:40:57;10.84;78.28
54540;SHT30;40438;52.992;18.604;2024-03-22T14:43:24;10.79;78.29
54540;SHT30;40438;52.992;18.604;2024-03-22T14:45:50;10.82;77.99
54540;SHT30;40438;52.992;18.604;2024-03-22T14:48:15;10.81;78.16
54540;SHT30;40438;52.992;18.604;2024-03-22T14:50:41;10.81;77.64
54540;SHT30;40438;52.992;18.604;2024-03-22T14:53:07;10.81;78.17
54540;SHT30;40438;52.992;18.604;2024-03-22T14:55:34;10.78;77.97
54540;SHT30;40438;52.992;18.604;2024-03-22T14:58:00;10.82;78.01
54540;SHT30;40438;52.992;18.604;2024-03-22T15:00:25;10.81;78.15
54540;SHT30;40438;52.992;18.604;2024-03-22T15:02:51;10.82;77.83
54540;SHT30;40438;52.992;18.604;2024-03-22T15:05:17;10.84;77.80
54540;SHT30;40438;52.992;18.604;2024-03-22T15:07:43;10.84;77.77
54540;SHT30;40438;52.992;18.604;2024-03-22T15:10:09;10.82;77.83
54540;SHT30;40438;52.992;18.604;2024-03-22T15:12:36;10.85;77.75
54540;SHT30;40438;52.992;18.604;2024-03-22T15:15:02;10.86;77.61
54540;SHT30;40438;52.992;18.604;2024-03-22T15:17:29;10.85;77.64
54540;SHT30;40438;52.992;18.604;2024-03-22T15:19:55;10.84;77.55
54540;SHT30;40438;52.992;18.604;2024-03-22T15:22:21;10.84;77.57